Kyokuhoumaru No.12 — JL5963 — position and weather

sailwx.info

Track history (hours):
 
Tides and Currents Weather Stations Pressure Air Temp Water Temp Dewpoint Dewpoint Depression Visibility Wind Speed Wind Dir Waves Ship Positions

Kyokuhoumaru No.12

Last reported at 2016-Jun-15 14:10 UTC. Time now 2016-Jun-29 00:22 UTC.
Position N 34°37' E 135°02'.
Warning: this ship's position is 13 days out of date.

Length 57 m.

Type: Tanker. MMSI: 431500879.

Date/timePositionNaut miles runAvg speedWind from/ knotsBaromVisibWave heightAir tempDewpointWater temp
2016-Jun-15 14:10N 34°37' E 135°02'5 7.3
2016-Jun-15 13:32N 34°33' E 135°05'233 6.1
2016-Jun-13 23:33N 35°24' E 139°43'10 9.8
2016-Jun-13 22:33N 35°31' E 139°52'7 6.5
2016-Jun-13 21:33N 35°37' E 139°55'0 0.0
2016-Jun-13 20:33N 35°37' E 139°55'0 0.0
2016-Jun-13 19:33N 35°37' E 139°55'0 0.0
2016-Jun-13 18:27N 35°37' E 139°55'0 0.0
2016-Jun-13 17:33N 35°37' E 139°55'0 0.0
2016-Jun-13 16:33N 35°37' E 139°55'0 0.0
2016-Jun-13 15:33N 35°37' E 139°55'0 0.0
2016-Jun-13 14:33N 35°37' E 139°55'0 0.0
2016-Jun-13 13:21N 35°37' E 139°55'0 0.0
2016-Jun-13 12:33N 35°37' E 139°55'0 0.0
2016-Jun-13 11:33N 35°37' E 139°55'0 0.0
2016-Jun-13 10:33N 35°37' E 139°55'0 0.0
2016-Jun-13 09:33N 35°37' E 139°55'0 0.0
2016-Jun-13 08:33N 35°37' E 139°55'0 0.0
2016-Jun-13 07:33N 35°37' E 139°55'0 0.0
2016-Jun-13 06:33N 35°37' E 139°55'0 0.0
2016-Jun-13 05:33N 35°37' E 139°55'0 0.0
2016-Jun-13 04:33N 35°37' E 139°55'5 4.5
2016-Jun-13 03:30N 35°41' E 139°57'0 0.0
2016-Jun-13 02:30N 35°41' E 139°57'0 0.0
2016-Jun-13 01:33N 35°41' E 139°57'0 0.0
2016-Jun-13 00:27N 35°41' E 139°57'0 0.0
2016-Jun-12 23:33N 35°41' E 139°57'4 3.6
2016-Jun-12 22:33N 35°37' E 139°58'2 2.2
2016-Jun-12 21:31N 35°37' E 139°55'0 0.0
2016-Jun-12 20:31N 35°37' E 139°55'0 0.0
2016-Jun-12 19:31N 35°37' E 139°55'0 0.0
2016-Jun-12 18:31N 35°37' E 139°55'0 0.0
2016-Jun-12 17:31N 35°37' E 139°55'0 0.0
2016-Jun-12 16:31N 35°37' E 139°55'0 0.0
2016-Jun-12 15:31N 35°37' E 139°55'0 0.0
2016-Jun-12 14:19N 35°37' E 139°55'0 0.0
2016-Jun-12 13:31N 35°37' E 139°55'0 0.0
2016-Jun-12 12:31N 35°37' E 139°55'0 0.0
2016-Jun-12 11:31N 35°37' E 139°55'0 0.0
2016-Jun-12 10:31N 35°37' E 139°55'0 0.0
2016-Jun-12 09:22N 35°37' E 139°55'0 0.0
2016-Jun-12 08:31N 35°37' E 139°55'0 0.0
2016-Jun-12 07:31N 35°37' E 139°55'0 0.0
2016-Jun-12 06:31N 35°37' E 139°55'12 6.1
2016-Jun-12 04:33N 35°26' E 139°48'9 8.0
2016-Jun-12 03:29N 35°18' E 139°45'8 7.7
2016-Jun-12 02:30N 35°10' E 139°46'  
Track history (hours):
 
Tides and Currents Weather Stations Pressure Air Temp Water Temp Dewpoint Dewpoint Depression Visibility Wind Speed Wind Dir Waves Ship Positions

Kyokuhoumaru No.12

Last reported at 2016-Jun-15 14:10 UTC. Time now 2016-Jun-29 00:22 UTC.
Position N 34°37' E 135°02'.
Warning: this ship's position is 13 days out of date.

Length 57 m.

Type: Tanker. MMSI: 431500879.

Date/timePositionNaut miles runAvg speedWind from/ knotsBaromVisibWave heightAir tempDewpointWater temp
2016-Jun-15 14:10N 34°37' E 135°02'5 7.3
2016-Jun-15 13:32N 34°33' E 135°05'233 6.1
2016-Jun-13 23:33N 35°24' E 139°43'10 9.8
2016-Jun-13 22:33N 35°31' E 139°52'7 6.5
2016-Jun-13 21:33N 35°37' E 139°55'0 0.0
2016-Jun-13 20:33N 35°37' E 139°55'0 0.0
2016-Jun-13 19:33N 35°37' E 139°55'0 0.0
2016-Jun-13 18:27N 35°37' E 139°55'0 0.0
2016-Jun-13 17:33N 35°37' E 139°55'0 0.0
2016-Jun-13 16:33N 35°37' E 139°55'0 0.0
2016-Jun-13 15:33N 35°37' E 139°55'0 0.0
2016-Jun-13 14:33N 35°37' E 139°55'0 0.0
2016-Jun-13 13:21N 35°37' E 139°55'0 0.0
2016-Jun-13 12:33N 35°37' E 139°55'0 0.0
2016-Jun-13 11:33N 35°37' E 139°55'0 0.0
2016-Jun-13 10:33N 35°37' E 139°55'0 0.0
2016-Jun-13 09:33N 35°37' E 139°55'0 0.0
2016-Jun-13 08:33N 35°37' E 139°55'0 0.0
2016-Jun-13 07:33N 35°37' E 139°55'0 0.0
2016-Jun-13 06:33N 35°37' E 139°55'0 0.0
2016-Jun-13 05:33N 35°37' E 139°55'0 0.0
2016-Jun-13 04:33N 35°37' E 139°55'5 4.5
2016-Jun-13 03:30N 35°41' E 139°57'0 0.0
2016-Jun-13 02:30N 35°41' E 139°57'0 0.0
2016-Jun-13 01:33N 35°41' E 139°57'0 0.0
2016-Jun-13 00:27N 35°41' E 139°57'0 0.0
2016-Jun-12 23:33N 35°41' E 139°57'4 3.6
2016-Jun-12 22:33N 35°37' E 139°58'2 2.2
2016-Jun-12 21:31N 35°37' E 139°55'0 0.0
2016-Jun-12 20:31N 35°37' E 139°55'0 0.0
2016-Jun-12 19:31N 35°37' E 139°55'0 0.0
2016-Jun-12 18:31N 35°37' E 139°55'0 0.0
2016-Jun-12 17:31N 35°37' E 139°55'0 0.0
2016-Jun-12 16:31N 35°37' E 139°55'0 0.0
2016-Jun-12 15:31N 35°37' E 139°55'0 0.0
2016-Jun-12 14:19N 35°37' E 139°55'0 0.0
2016-Jun-12 13:31N 35°37' E 139°55'0 0.0
2016-Jun-12 12:31N 35°37' E 139°55'0 0.0
2016-Jun-12 11:31N 35°37' E 139°55'0 0.0
2016-Jun-12 10:31N 35°37' E 139°55'0 0.0
2016-Jun-12 09:22N 35°37' E 139°55'0 0.0
2016-Jun-12 08:31N 35°37' E 139°55'0 0.0
2016-Jun-12 07:31N 35°37' E 139°55'0 0.0
2016-Jun-12 06:31N 35°37' E 139°55'12 6.1
2016-Jun-12 04:33N 35°26' E 139°48'9 8.0
2016-Jun-12 03:29N 35°18' E 139°45'8 7.7
2016-Jun-12 02:30N 35°10' E 139°46'  

Dump ship's entire track history